sensor_id;sensor_type;location;lat;lon;timestamp;pressure;altitude;pressure_sealevel;temperature;humidity
44675;BME280;30388;52.038;-1.478;2022-11-15T00:02:00;65526.05;;;7.79;100.00
44675;BME280;30388;52.038;-1.478;2022-11-15T00:04:27;65474.22;;;7.40;100.00
44675;BME280;30388;52.038;-1.478;2022-11-15T00:06:55;65517.49;;;7.68;100.00
44675;BME280;30388;52.038;-1.478;2022-11-15T00:09:22;65486.48;;;7.28;100.00
44675;BME280;30388;52.038;-1.478;2022-11-15T00:11:51;65537.65;;;7.94;100.00
44675;BME280;30388;52.038;-1.478;2022-11-15T00:14:18;65355.71;;;6.60;100.00
44675;BME280;30388;52.038;-1.478;2022-11-15T00:16:44;65456.44;;;7.17;100.00
44675;BME280;30388;52.038;-1.478;2022-11-15T00:19:12;65446.81;;;7.27;100.00
44675;BME280;30388;52.038;-1.478;2022-11-15T00:21:38;65427.08;;;7.02;100.00
44675;BME280;30388;52.038;-1.478;2022-11-15T00:24:06;65516.59;;;7.93;100.00
44675;BME280;30388;52.038;-1.478;2022-11-15T00:26:33;65408.88;;;6.77;100.00
44675;BME280;30388;52.038;-1.478;2022-11-15T00:28:59;65434.20;;;7.11;100.00
44675;BME280;30388;52.038;-1.478;2022-11-15T00:31:27;65534.37;;;8.17;100.00
44675;BME280;30388;52.038;-1.478;2022-11-15T00:33:54;65560.10;;;8.21;100.00
44675;BME280;30388;52.038;-1.478;2022-11-15T00:36:21;65539.45;;;7.73;100.00
44675;BME280;30388;52.038;-1.478;2022-11-15T00:38:49;65534.25;;;7.90;100.00
44675;BME280;30388;52.038;-1.478;2022-11-15T00:41:16;65602.50;;;8.53;100.00
44675;BME280;30388;52.038;-1.478;2022-11-15T00:43:43;65582.60;;;8.28;100.00
44675;BME280;30388;52.038;-1.478;2022-11-15T00:46:10;65611.64;;;8.43;100.00
44675;BME280;30388;52.038;-1.478;2022-11-15T00:48:37;65559.81;;;8.21;100.00
44675;BME280;30388;52.038;-1.478;2022-11-15T00:51:04;65659.22;;;9.03;100.00
44675;BME280;30388;52.038;-1.478;2022-11-15T00:53:32;65625.97;;;8.83;100.00
44675;BME280;30388;52.038;-1.478;2022-11-15T00:55:58;65604.54;;;8.78;100.00
44675;BME280;30388;52.038;-1.478;2022-11-15T00:58:25;65601.80;;;8.75;100.00
44675;BME280;30388;52.038;-1.478;2022-11-15T01:00:52;65573.55;;;8.40;100.00
44675;BME280;30388;52.038;-1.478;2022-11-15T01:03:19;65510.14;;;7.58;100.00
44675;BME280;30388;52.038;-1.478;2022-11-15T01:05:46;65537.96;;;7.92;100.00
44675;BME280;30388;52.038;-1.478;2022-11-15T01:08:15;65570.21;;;8.35;100.00
44675;BME280;30388;52.038;-1.478;2022-11-15T01:10:42;65549.86;;;8.10;100.00
44675;BME280;30388;52.038;-1.478;2022-11-15T01:13:09;65615.33;;;8.92;100.00
44675;BME280;30388;52.038;-1.478;2022-11-15T01:15:39;65459.61;;;6.94;100.00
44675;BME280;30388;52.038;-1.478;2022-11-15T01:18:07;65549.05;;;8.07;100.00
44675;BME280;30388;52.038;-1.478;2022-11-15T01:20:33;65522.46;;;7.74;100.00
44675;BME280;30388;52.038;-1.478;2022-11-15T01:23:00;65477.11;;;7.43;100.00
44675;BME280;30388;52.038;-1.478;2022-11-15T01:25:27;65466.38;;;7.52;100.00
44675;BME280;30388;52.038;-1.478;2022-11-15T01:27:54;65334.15;;;6.06;100.00
44675;BME280;30388;52.038;-1.478;2022-11-15T01:30:21;65390.31;;;6.56;100.00
44675;BME280;30388;52.038;-1.478;2022-11-15T01:32:49;65465.57;;;7.51;100.00
44675;BME280;30388;52.038;-1.478;2022-11-15T01:35:15;65489.14;;;7.81;100.00
44675;BME280;30388;52.038;-1.478;2022-11-15T01:37:42;65338.33;;;6.38;100.00
44675;BME280;30388;52.038;-1.478;2022-11-15T01:40:10;65306.27;;;5.98;100.00
44675;BME280;30388;52.038;-1.478;2022-11-15T01:42:37;65402.00;;;6.93;100.00
44675;BME280;30388;52.038;-1.478;2022-11-15T01:45:07;65491.58;;;7.84;100.00
44675;BME280;30388;52.038;-1.478;2022-11-15T01:47:41;65393.60;;;7.09;100.00
44675;BME280;30388;52.038;-1.478;2022-11-15T01:50:16;65519.34;;;7.97;100.00
44675;BME280;30388;52.038;-1.478;2022-11-15T01:52:44;65398.54;;;6.88;100.00
44675;BME280;30388;52.038;-1.478;2022-11-15T01:55:15;65472.80;;;7.60;100.00
44675;BME280;30388;52.038;-1.478;2022-11-15T01:57:46;65536.81;;;7.92;100.00
44675;BME280;30388;52.038;-1.478;2022-11-15T02:00:15;65489.36;;;7.81;100.00
44675;BME280;30388;52.038;-1.478;2022-11-15T02:02:43;65471.47;;;7.59;100.00
44675;BME280;30388;52.038;-1.478;2022-11-15T02:05:10;65464.75;;;7.50;100.00
44675;BME280;30388;52.038;-1.478;2022-11-15T02:07:37;65478.19;;;7.45;100.00
44675;BME280;30388;52.038;-1.478;2022-11-15T02:10:08;65480.22;;;7.91;100.00
44675;BME280;30388;52.038;-1.478;2022-11-15T02:12:36;65463.60;;;7.71;100.00
44675;BME280;30388;52.038;-1.478;2022-11-15T02:15:05;65450.48;;;7.54;100.00
44675;BME280;30388;52.038;-1.478;2022-11-15T02:17:47;65384.55;;;6.97;100.00
44675;BME280;30388;52.038;-1.478;2022-11-15T02:20:39;65369.64;;;6.79;100.00
44675;BME280;30388;52.038;-1.478;2022-11-15T02:23:28;65368.10;;;6.76;100.00
44675;BME280;30388;52.038;-1.478;2022-11-15T02:26:14;65327.05;;;6.73;100.00
44675;BME280;30388;52.038;-1.478;2022-11-15T02:28:54;65334.07;;;6.82;100.00
44675;BME280;30388;52.038;-1.478;2022-11-15T02:31:29;65358.04;;;6.86;100.00
44675;BME280;30388;52.038;-1.478;2022-11-15T02:34:06;65375.40;;;6.86;100.00
44675;BME280;30388;52.038;-1.478;2022-11-15T02:36:40;65431.65;;;7.30;100.00
44675;BME280;30388;52.038;-1.478;2022-11-15T02:39:13;65413.79;;;7.08;100.00
44675;BME280;30388;52.038;-1.478;2022-11-15T02:41:47;65415.32;;;7.36;100.00
44675;BME280;30388;52.038;-1.478;2022-11-15T02:44:19;65418.42;;;7.40;100.00
44675;BME280;30388;52.038;-1.478;2022-11-15T02:46:51;65445.37;;;7.74;100.00
44675;BME280;30388;52.038;-1.478;2022-11-15T02:49:19;65452.38;;;7.57;100.00
44675;BME280;30388;52.038;-1.478;2022-11-15T02:51:48;65471.40;;;7.80;100.00
44675;BME280;30388;52.038;-1.478;2022-11-15T02:54:20;65418.26;;;7.13;100.00
44675;BME280;30388;52.038;-1.478;2022-11-15T02:56:49;65468.64;;;8.04;100.00
44675;BME280;30388;52.038;-1.478;2022-11-15T02:59:29;65396.90;;;6.86;100.00
44675;BME280;30388;52.038;-1.478;2022-11-15T03:02:15;65405.16;;;7.23;100.00
44675;BME280;30388;52.038;-1.478;2022-11-15T03:04:49;65357.39;;;6.63;100.00
44675;BME280;30388;52.038;-1.478;2022-11-15T03:07:25;65357.81;;;7.12;100.00
44675;BME280;30388;52.038;-1.478;2022-11-15T03:10:05;65337.62;;;6.87;100.00
44675;BME280;30388;52.038;-1.478;2022-11-15T03:12:37;65410.10;;;7.30;100.00
44675;BME280;30388;52.038;-1.478;2022-11-15T03:15:11;65442.33;;;7.45;100.00
44675;BME280;30388;52.038;-1.478;2022-11-15T03:17:42;65465.63;;;7.51;100.00
44675;BME280;30388;52.038;-1.478;2022-11-15T03:20:13;65484.18;;;7.74;100.00
44675;BME280;30388;52.038;-1.478;2022-11-15T03:22:44;65514.85;;;8.13;100.00
44675;BME280;30388;52.038;-1.478;2022-11-15T03:25:17;65519.04;;;8.19;100.00
44675;BME280;30388;52.038;-1.478;2022-11-15T03:27:50;65512.26;;;8.11;100.00
44675;BME280;30388;52.038;-1.478;2022-11-15T03:30:19;65480.49;;;7.92;100.00
44675;BME280;30388;52.038;-1.478;2022-11-15T03:32:49;65445.28;;;7.26;100.00
44675;BME280;30388;52.038;-1.478;2022-11-15T03:35:20;65521.98;;;8.23;100.00
44675;BME280;30388;52.038;-1.478;2022-11-15T03:37:52;65445.12;;;7.75;100.00
44675;BME280;30388;52.038;-1.478;2022-11-15T03:40:25;65392.41;;;7.08;100.00
44675;BME280;30388;52.038;-1.478;2022-11-15T03:43:00;65484.52;;;7.98;100.00
44675;BME280;30388;52.038;-1.478;2022-11-15T03:45:33;65491.69;;;8.07;100.00
44675;BME280;30388;52.038;-1.478;2022-11-15T03:48:07;65456.12;;;7.88;100.00
44675;BME280;30388;52.038;-1.478;2022-11-15T03:50:37;65516.70;;;8.39;100.00
44675;BME280;30388;52.038;-1.478;2022-11-15T03:53:05;65482.88;;;7.74;100.00
44675;BME280;30388;52.038;-1.478;2022-11-15T03:55:32;65493.36;;;7.87;100.00
44675;BME280;30388;52.038;-1.478;2022-11-15T03:58:00;65428.55;;;7.54;100.00
44675;BME280;30388;52.038;-1.478;2022-11-15T04:00:28;65480.69;;;7.93;100.00
44675;BME280;30388;52.038;-1.478;2022-11-15T04:02:56;65442.94;;;7.72;100.00
44675;BME280;30388;52.038;-1.478;2022-11-15T04:05:23;65411.83;;;7.33;100.00
44675;BME280;30388;52.038;-1.478;2022-11-15T04:07:50;65404.77;;;7.23;100.00
44675;BME280;30388;52.038;-1.478;2022-11-15T04:10:17;65477.59;;;7.67;100.00
44675;BME280;30388;52.038;-1.478;2022-11-15T04:12:46;65403.65;;;6.96;100.00
44675;BME280;30388;52.038;-1.478;2022-11-15T04:15:15;65485.00;;;7.76;100.00
44675;BME280;30388;52.038;-1.478;2022-11-15T04:17:44;65503.66;;;8.00;100.00
44675;BME280;30388;52.038;-1.478;2022-11-15T04:20:13;65497.76;;;8.15;100.00
44675;BME280;30388;52.038;-1.478;2022-11-15T04:22:41;65518.51;;;8.40;100.00
44675;BME280;30388;52.038;-1.478;2022-11-15T04:25:08;65474.40;;;8.12;100.00
44675;BME280;30388;52.038;-1.478;2022-11-15T04:27:35;65498.02;;;8.14;100.00
44675;BME280;30388;52.038;-1.478;2022-11-15T04:30:03;65490.95;;;8.07;100.00
44675;BME280;30388;52.038;-1.478;2022-11-15T04:32:29;65506.81;;;8.04;100.00
44675;BME280;30388;52.038;-1.478;2022-11-15T04:34:56;65519.00;;;8.19;100.00
44675;BME280;30388;52.038;-1.478;2022-11-15T04:37:23;65527.25;;;8.30;100.00
44675;BME280;30388;52.038;-1.478;2022-11-15T04:39:51;65400.99;;;7.19;100.00
44675;BME280;30388;52.038;-1.478;2022-11-15T04:42:18;65506.28;;;8.26;100.00
44675;BME280;30388;52.038;-1.478;2022-11-15T04:44:45;65460.77;;;7.94;100.00
44675;BME280;30388;52.038;-1.478;2022-11-15T04:47:12;65498.27;;;7.93;100.00
44675;BME280;30388;52.038;-1.478;2022-11-15T04:49:39;65453.95;;;7.59;100.00
44675;BME280;30388;52.038;-1.478;2022-11-15T04:52:05;65503.61;;;8.00;100.00
44675;BME280;30388;52.038;-1.478;2022-11-15T04:54:33;65506.93;;;8.04;100.00
44675;BME280;30388;52.038;-1.478;2022-11-15T04:57:00;65518.28;;;8.40;100.00
44675;BME280;30388;52.038;-1.478;2022-11-15T04:59:27;65414.67;;;7.36;100.00
44675;BME280;30388;52.038;-1.478;2022-11-15T05:01:54;65421.10;;;7.44;100.00
44675;BME280;30388;52.038;-1.478;2022-11-15T05:04:20;65498.52;;;7.93;100.00
44675;BME280;30388;52.038;-1.478;2022-11-15T05:06:50;65467.85;;;7.77;100.00
44675;BME280;30388;52.038;-1.478;2022-11-15T05:09:17;65474.80;;;7.85;100.00
44675;BME280;30388;52.038;-1.478;2022-11-15T05:11:45;65455.99;;;7.62;100.00
44675;BME280;30388;52.038;-1.478;2022-11-15T05:14:12;65535.09;;;8.40;100.00
44675;BME280;30388;52.038;-1.478;2022-11-15T05:16:40;65536.35;;;8.41;100.00
44675;BME280;30388;52.038;-1.478;2022-11-15T05:19:08;65529.82;;;8.33;100.00
44675;BME280;30388;52.038;-1.478;2022-11-15T05:21:36;65504.40;;;8.49;100.00
44675;BME280;30388;52.038;-1.478;2022-11-15T05:24:04;65459.89;;;7.67;100.00
44675;BME280;30388;52.038;-1.478;2022-11-15T05:26:32;65499.45;;;8.17;100.00
44675;BME280;30388;52.038;-1.478;2022-11-15T05:28:59;65523.98;;;8.26;100.00
44675;BME280;30388;52.038;-1.478;2022-11-15T05:31:26;65552.56;;;8.62;100.00
44675;BME280;30388;52.038;-1.478;2022-11-15T05:33:55;65486.24;;;7.56;100.00
44675;BME280;30388;52.038;-1.478;2022-11-15T05:36:29;65480.63;;;7.71;100.00
44675;BME280;30388;52.038;-1.478;2022-11-15T05:38:58;65521.02;;;8.21;100.00
44675;BME280;30388;52.038;-1.478;2022-11-15T05:41:29;65532.83;;;8.15;100.00
44675;BME280;30388;52.038;-1.478;2022-11-15T05:43:57;65517.07;;;7.95;100.00
44675;BME280;30388;52.038;-1.478;2022-11-15T05:46:24;65516.12;;;8.16;100.00
44675;BME280;30388;52.038;-1.478;2022-11-15T05:48:52;65552.34;;;8.62;100.00
44675;BME280;30388;52.038;-1.478;2022-11-15T05:51:21;65592.66;;;8.64;100.00
44675;BME280;30388;52.038;-1.478;2022-11-15T05:53:50;65574.55;;;8.91;100.00
44675;BME280;30388;52.038;-1.478;2022-11-15T05:56:18;65558.63;;;8.71;100.00
44675;BME280;30388;52.038;-1.478;2022-11-15T05:58:45;65607.30;;;8.83;100.00
44675;BME280;30388;52.038;-1.478;2022-11-15T06:01:12;65583.17;;;8.79;100.00
44675;BME280;30388;52.038;-1.478;2022-11-15T06:03:40;65608.96;;;9.12;100.00
44675;BME280;30388;52.038;-1.478;2022-11-15T06:06:07;65562.13;;;8.74;100.00
44675;BME280;30388;52.038;-1.478;2022-11-15T06:08:34;65586.90;;;9.05;100.00
44675;BME280;30388;52.038;-1.478;2022-11-15T06:11:05;65553.08;;;8.63;100.00
44675;BME280;30388;52.038;-1.478;2022-11-15T06:13:32;65560.85;;;8.24;100.00
44675;BME280;30388;52.038;-1.478;2022-11-15T06:16:00;65508.75;;;8.29;100.00
44675;BME280;30388;52.038;-1.478;2022-11-15T06:18:27;65600.16;;;8.74;100.00
44675;BME280;30388;52.038;-1.478;2022-11-15T06:20:58;65629.40;;;9.38;100.00
44675;BME280;30388;52.038;-1.478;2022-11-15T06:23:27;65634.61;;;9.43;100.00
44675;BME280;30388;52.038;-1.478;2022-11-15T06:25:57;65608.80;;;8.84;100.00
44675;BME280;30388;52.038;-1.478;2022-11-15T06:28:25;65587.17;;;8.57;100.00
44675;BME280;30388;52.038;-1.478;2022-11-15T06:30:54;65583.86;;;8.53;100.00
44675;BME280;30388;52.038;-1.478;2022-11-15T06:33:20;65606.64;;;8.81;100.00
44675;BME280;30388;52.038;-1.478;2022-11-15T06:35:47;65607.12;;;9.09;100.00
44675;BME280;30388;52.038;-1.478;2022-11-15T06:38:14;65571.00;;;8.63;100.00
44675;BME280;30388;52.038;-1.478;2022-11-15T06:40:42;65632.21;;;9.14;100.00
44675;BME280;30388;52.038;-1.478;2022-11-15T06:43:09;65668.41;;;9.38;100.00
44675;BME280;30388;52.038;-1.478;2022-11-15T06:45:36;65654.79;;;9.43;100.00
44675;BME280;30388;52.038;-1.478;2022-11-15T06:48:04;65584.68;;;8.54;100.00
44675;BME280;30388;52.038;-1.478;2022-11-15T06:50:31;65598.16;;;8.71;100.00
44675;BME280;30388;52.038;-1.478;2022-11-15T06:53:01;65631.98;;;9.40;100.00
44675;BME280;30388;52.038;-1.478;2022-11-15T06:55:29;65507.90;;;8.06;100.00
44675;BME280;30388;52.038;-1.478;2022-11-15T06:57:57;65643.96;;;9.29;100.00
44675;BME280;30388;52.038;-1.478;2022-11-15T07:00:23;65644.27;;;9.29;100.00
44675;BME280;30388;52.038;-1.478;2022-11-15T07:02:51;65627.59;;;9.08;100.00
44675;BME280;30388;52.038;-1.478;2022-11-15T07:05:18;65643.98;;;9.29;100.00
44675;BME280;30388;52.038;-1.478;2022-11-15T07:07:51;65650.25;;;9.37;100.00
44675;BME280;30388;52.038;-1.478;2022-11-15T07:10:19;65619.81;;;9.25;100.00
44675;BME280;30388;52.038;-1.478;2022-11-15T07:12:47;65597.75;;;8.70;100.00
44675;BME280;30388;52.038;-1.478;2022-11-15T07:15:15;65599.93;;;8.73;100.00
44675;BME280;30388;52.038;-1.478;2022-11-15T07:17:42;65592.80;;;8.64;100.00
44675;BME280;30388;52.038;-1.478;2022-11-15T07:20:10;65511.68;;;8.58;100.00
44675;BME280;30388;52.038;-1.478;2022-11-15T07:22:37;65622.15;;;9.27;100.00
44675;BME280;30388;52.038;-1.478;2022-11-15T07:25:05;65639.00;;;9.22;100.00
44675;BME280;30388;52.038;-1.478;2022-11-15T07:27:32;65572.09;;;8.64;100.00
44675;BME280;30388;52.038;-1.478;2022-11-15T07:29:59;65615.57;;;9.19;100.00
44675;BME280;30388;52.038;-1.478;2022-11-15T07:32:26;65595.66;;;9.16;100.00
44675;BME280;30388;52.038;-1.478;2022-11-15T07:34:53;65602.32;;;9.25;100.00
44675;BME280;30388;52.038;-1.478;2022-11-15T07:37:21;65551.30;;;8.60;100.00
44675;BME280;30388;52.038;-1.478;2022-11-15T07:39:48;65635.06;;;9.18;100.00
44675;BME280;30388;52.038;-1.478;2022-11-15T07:42:15;65611.44;;;8.88;100.00
44675;BME280;30388;52.038;-1.478;2022-11-15T07:44:42;65587.28;;;9.05;100.00
44675;BME280;30388;52.038;-1.478;2022-11-15T07:47:10;65555.42;;;8.65;100.00
44675;BME280;30388;52.038;-1.478;2022-11-15T07:49:37;65542.02;;;8.70;100.00
44675;BME280;30388;52.038;-1.478;2022-11-15T07:52:05;65548.47;;;8.79;100.00
44675;BME280;30388;52.038;-1.478;2022-11-15T07:54:36;65608.19;;;8.83;100.00
44675;BME280;30388;52.038;-1.478;2022-11-15T07:57:04;65565.90;;;9.01;100.00
44675;BME280;30388;52.038;-1.478;2022-11-15T07:59:32;65554.21;;;8.64;100.00
44675;BME280;30388;52.038;-1.478;2022-11-15T08:01:59;65594.83;;;8.94;100.00
44675;BME280;30388;52.038;-1.478;2022-11-15T08:04:26;65563.46;;;8.75;100.00
44675;BME280;30388;52.038;-1.478;2022-11-15T08:06:54;65547.20;;;8.77;100.00
44675;BME280;30388;52.038;-1.478;2022-11-15T08:09:21;65587.15;;;8.83;100.00
44675;BME280;30388;52.038;-1.478;2022-11-15T08:11:49;65578.73;;;8.95;100.00
44675;BME280;30388;52.038;-1.478;2022-11-15T08:14:16;65573.50;;;8.88;100.00
44675;BME280;30388;52.038;-1.478;2022-11-15T08:16:43;65553.06;;;8.85;100.00
44675;BME280;30388;52.038;-1.478;2022-11-15T08:19:10;65543.04;;;8.99;100.00
44675;BME280;30388;52.038;-1.478;2022-11-15T08:21:37;65594.36;;;9.15;100.00
44675;BME280;30388;52.038;-1.478;2022-11-15T08:24:05;65609.71;;;9.35;100.00
44675;BME280;30388;52.038;-1.478;2022-11-15T08:26:32;65607.00;;;9.09;100.00
44675;BME280;30388;52.038;-1.478;2022-11-15T08:29:00;65577.25;;;8.71;100.00
44675;BME280;30388;52.038;-1.478;2022-11-15T08:31:27;65570.45;;;8.62;100.00
44675;BME280;30388;52.038;-1.478;2022-11-15T08:33:54;65621.47;;;9.49;100.00
44675;BME280;30388;52.038;-1.478;2022-11-15T08:36:20;65621.12;;;9.27;100.00
44675;BME280;30388;52.038;-1.478;2022-11-15T08:38:48;65585.85;;;9.04;100.00
44675;BME280;30388;52.038;-1.478;2022-11-15T08:41:23;65619.76;;;8.98;100.00
44675;BME280;30388;52.038;-1.478;2022-11-15T08:43:51;65645.15;;;9.31;100.00
44675;BME280;30388;52.038;-1.478;2022-11-15T08:46:19;65658.98;;;9.48;100.00
44675;BME280;30388;52.038;-1.478;2022-11-15T08:48:45;65634.35;;;9.17;100.00
44675;BME280;30388;52.038;-1.478;2022-11-15T08:51:12;65681.84;;;9.77;100.00
44675;BME280;30388;52.038;-1.478;2022-11-15T08:53:39;65645.98;;;9.32;100.00
44675;BME280;30388;52.038;-1.478;2022-11-15T08:56:07;65650.34;;;9.38;100.00
44675;BME280;30388;52.038;-1.478;2022-11-15T08:58:34;65645.98;;;9.32;100.00
44675;BME280;30388;52.038;-1.478;2022-11-15T09:01:02;65636.30;;;9.19;100.00
44675;BME280;30388;52.038;-1.478;2022-11-15T09:03:29;65623.18;;;9.51;100.00
44675;BME280;30388;52.038;-1.478;2022-11-15T09:05:58;65621.22;;;9.26;100.00
44675;BME280;30388;52.038;-1.478;2022-11-15T09:08:30;65638.69;;;9.48;100.00
44675;BME280;30388;52.038;-1.478;2022-11-15T09:10:57;65565.69;;;8.79;100.00
44675;BME280;30388;52.038;-1.478;2022-11-15T09:13:24;65641.14;;;9.25;100.00
44675;BME280;30388;52.038;-1.478;2022-11-15T09:15:52;65709.60;;;9.89;100.00
44675;BME280;30388;52.038;-1.478;2022-11-15T09:18:18;65704.47;;;10.05;100.00
44675;BME280;30388;52.038;-1.478;2022-11-15T09:20:45;65645.39;;;9.08;100.00
44675;BME280;30388;52.038;-1.478;2022-11-15T09:23:13;65689.77;;;9.42;100.00
44675;BME280;30388;52.038;-1.478;2022-11-15T09:25:41;65657.43;;;9.45;100.00
44675;BME280;30388;52.038;-1.478;2022-11-15T09:28:09;65681.42;;;9.31;100.00
44675;BME280;30388;52.038;-1.478;2022-11-15T09:30:36;65652.82;;;9.40;100.00
44675;BME280;30388;52.038;-1.478;2022-11-15T09:33:07;65588.95;;;8.60;100.00
44675;BME280;30388;52.038;-1.478;2022-11-15T09:35:34;65619.65;;;8.98;100.00
44675;BME280;30388;52.038;-1.478;2022-11-15T09:38:01;65682.14;;;9.33;100.00
44675;BME280;30388;52.038;-1.478;2022-11-15T09:40:30;65652.52;;;9.17;100.00
44675;BME280;30388;52.038;-1.478;2022-11-15T09:43:08;65631.17;;;9.12;100.00
44675;BME280;30388;52.038;-1.478;2022-11-15T09:45:50;65644.45;;;9.29;100.00
44675;BME280;30388;52.038;-1.478;2022-11-15T09:48:48;65735.69;;;10.00;100.00
44675;BME280;30388;52.038;-1.478;2022-11-15T09:51:28;65656.88;;;9.00;100.00
44675;BME280;30388;52.038;-1.478;2022-11-15T09:54:04;65688.40;;;9.63;100.00
44675;BME280;30388;52.038;-1.478;2022-11-15T09:56:33;65698.40;;;9.53;100.00
44675;BME280;30388;52.038;-1.478;2022-11-15T09:59:13;65714.99;;;9.96;100.00
44675;BME280;30388;52.038;-1.478;2022-11-15T10:01:48;65601.08;;;8.74;100.00
44675;BME280;30388;52.038;-1.478;2022-11-15T10:04:21;65604.94;;;8.80;100.00
44675;BME280;30388;52.038;-1.478;2022-11-15T10:07:04;65641.12;;;9.25;100.00
44675;BME280;30388;52.038;-1.478;2022-11-15T10:09:38;65661.84;;;9.29;100.00
44675;BME280;30388;52.038;-1.478;2022-11-15T10:12:14;65686.80;;;9.83;100.00
44675;BME280;30388;52.038;-1.478;2022-11-15T10:14:49;65738.55;;;10.04;100.00
44675;BME280;30388;52.038;-1.478;2022-11-15T10:17:29;65733.09;;;9.97;100.00
44675;BME280;30388;52.038;-1.478;2022-11-15T10:20:09;65659.83;;;9.49;100.00
44675;BME280;30388;52.038;-1.478;2022-11-15T10:22:41;65634.86;;;9.43;100.00
44675;BME280;30388;52.038;-1.478;2022-11-15T10:25:18;65653.63;;;9.41;100.00
44675;BME280;30388;52.038;-1.478;2022-11-15T10:27:56;65696.76;;;9.95;100.00
44675;BME280;30388;52.038;-1.478;2022-11-15T10:30:33;65691.14;;;9.89;100.00
44675;BME280;30388;52.038;-1.478;2022-11-15T10:33:25;65719.27;;;10.02;100.00
44675;BME280;30388;52.038;-1.478;2022-11-15T10:36:16;65708.05;;;9.87;100.00
44675;BME280;30388;52.038;-1.478;2022-11-15T10:38:58;65676.77;;;9.70;100.00
44675;BME280;30388;52.038;-1.478;2022-11-15T10:41:37;65666.27;;;9.57;100.00
44675;BME280;30388;52.038;-1.478;2022-11-15T10:44:20;65688.21;;;9.84;100.00
44675;BME280;30388;52.038;-1.478;2022-11-15T10:47:04;65736.06;;;10.23;100.00
44675;BME280;30388;52.038;-1.478;2022-11-15T10:49:53;65723.87;;;10.07;100.00
44675;BME280;30388;52.038;-1.478;2022-11-15T10:52:20;65729.25;;;9.92;100.00
44675;BME280;30388;52.038;-1.478;2022-11-15T10:54:55;65706.79;;;9.63;100.00
44675;BME280;30388;52.038;-1.478;2022-11-15T10:57:24;65786.19;;;10.15;100.00
44675;BME280;30388;52.038;-1.478;2022-11-15T10:59:56;65756.10;;;10.26;100.00
44675;BME280;30388;52.038;-1.478;2022-11-15T11:02:31;65702.79;;;9.58;100.00
44675;BME280;30388;52.038;-1.478;2022-11-15T11:05:05;65773.24;;;10.21;100.00
44675;BME280;30388;52.038;-1.478;2022-11-15T11:07:34;65831.66;;;10.73;100.00
44675;BME280;30388;52.038;-1.478;2022-11-15T11:10:04;65700.52;;;9.56;100.00
44675;BME280;30388;52.038;-1.478;2022-11-15T11:12:33;65724.20;;;9.87;100.00
44675;BME280;30388;52.038;-1.478;2022-11-15T11:15:05;65801.34;;;10.56;100.00
44675;BME280;30388;52.038;-1.478;2022-11-15T11:17:49;65781.66;;;10.58;100.00
44675;BME280;30388;52.038;-1.478;2022-11-15T11:20:22;65743.02;;;10.31;100.00
44675;BME280;30388;52.038;-1.478;2022-11-15T11:23:00;65798.08;;;10.79;100.00
44675;BME280;30388;52.038;-1.478;2022-11-15T11:25:34;65772.07;;;10.19;100.00
44675;BME280;30388;52.038;-1.478;2022-11-15T11:28:16;65794.05;;;10.74;100.00
44675;BME280;30388;52.038;-1.478;2022-11-15T11:30:55;65773.26;;;10.47;100.00
44675;BME280;30388;52.038;-1.478;2022-11-15T11:33:31;65720.72;;;9.81;100.00
44675;BME280;30388;52.038;-1.478;2022-11-15T11:36:10;65719.56;;;10.02;100.00
44675;BME280;30388;52.038;-1.478;2022-11-15T11:38:53;65748.88;;;10.16;100.00
44675;BME280;30388;52.038;-1.478;2022-11-15T11:41:44;65743.20;;;10.31;100.00
44675;BME280;30388;52.038;-1.478;2022-11-15T11:44:24;65769.07;;;10.43;100.00
44675;BME280;30388;52.038;-1.478;2022-11-15T11:47:01;65714.91;;;9.96;100.00
44675;BME280;30388;52.038;-1.478;2022-11-15T11:49:36;65696.20;;;9.72;100.00
44675;BME280;30388;52.038;-1.478;2022-11-15T11:52:10;65684.75;;;9.58;100.00
44675;BME280;30388;52.038;-1.478;2022-11-15T11:54:47;65697.98;;;9.53;100.00
44675;BME280;30388;52.038;-1.478;2022-11-15T11:57:27;65798.74;;;10.53;100.00
44675;BME280;30388;52.038;-1.478;2022-11-15T12:00:00;65843.90;;;10.62;100.00
44675;BME280;30388;52.038;-1.478;2022-11-15T12:02:37;65851.10;;;10.98;100.00
44675;BME280;30388;52.038;-1.478;2022-11-15T12:05:13;65822.79;;;10.62;100.00
44675;BME280;30388;52.038;-1.478;2022-11-15T12:07:43;65860.44;;;11.09;100.00
44675;BME280;30388;52.038;-1.478;2022-11-15T12:10:23;65903.27;;;11.63;100.00
44675;BME280;30388;52.038;-1.478;2022-11-15T12:12:58;65906.98;;;11.19;100.00
44675;BME280;30388;52.038;-1.478;2022-11-15T12:15:36;65921.13;;;11.37;100.00
44675;BME280;30388;52.038;-1.478;2022-11-15T12:18:11;66010.07;;;12.49;100.00
44675;BME280;30388;52.038;-1.478;2022-11-15T12:20:42;65992.68;;;11.78;100.00
44675;BME280;30388;52.038;-1.478;2022-11-15T12:23:17;66015.13;;;12.06;100.00
44675;BME280;30388;52.038;-1.478;2022-11-15T12:25:50;65971.72;;;11.78;100.00
44675;BME280;30388;52.038;-1.478;2022-11-15T12:28:26;66017.37;;;12.58;100.00
44675;BME280;30388;52.038;-1.478;2022-11-15T12:31:03;66104.95;;;13.20;100.00
44675;BME280;30388;52.038;-1.478;2022-11-15T12:33:36;66178.23;;;13.67;100.00
44675;BME280;30388;52.038;-1.478;2022-11-15T12:36:08;66089.50;;;12.78;100.00
44675;BME280;30388;52.038;-1.478;2022-11-15T12:38:56;66221.09;;;14.22;100.00
44675;BME280;30388;52.038;-1.478;2022-11-15T12:41:27;66145.21;;;13.49;100.00
44675;BME280;30388;52.038;-1.478;2022-11-15T12:43:55;66053.65;;;12.55;100.00
44675;BME280;30388;52.038;-1.478;2022-11-15T12:46:59;66071.70;;;12.78;100.00
44675;BME280;30388;52.038;-1.478;2022-11-15T12:49:44;66127.81;;;13.26;100.00
44675;BME280;30388;52.038;-1.478;2022-11-15T12:52:15;65982.92;;;11.92;100.00
44675;BME280;30388;52.038;-1.478;2022-11-15T12:55:29;65978.45;;;12.09;100.00
44675;BME280;30388;52.038;-1.478;2022-11-15T12:58:26;65940.47;;;11.83;100.00
44675;BME280;30388;52.038;-1.478;2022-11-15T13:00:53;65882.75;;;11.11;100.00
44675;BME280;30388;52.038;-1.478;2022-11-15T13:03:24;65900.98;;;11.33;100.00
44675;BME280;30388;52.038;-1.478;2022-11-15T13:05:58;65939.63;;;11.60;100.00
44675;BME280;30388;52.038;-1.478;2022-11-15T13:08:57;65991.13;;;12.25;100.00